Weather at Bunyu Airport

Public forecast

Using degrees Celsius for public forecast. Weather courtesy of forecast.io.

Closest aviation weather report (METAR) to Bunyu Airport

Closest report is Tawau Airport, 54.2 nm (100.4 km) NNE.

2022/12/06 14:00 (retrieved 22 minutes ago)

WBKW 061400Z 00000KT 9999 FEW016 25/24 Q1009

Closest aviation forecast (TAF) to Bunyu Airport

Closest forecast is Tawau Airport, 54.2 nm (100.4 km) NNE.

2022/12/06 12:00 (retrieved 2 hours ago)

TAF WBKW 061100Z 0612/0712 03007KT 9999 FEW016